Tiempo atmosférico en la estación meteorológica de Jerez De Los Caballeros, Badajoz (381 m.)



Fecha
DESCASC
Temp. máxima en grados centígrados (hora)
DESCASC
Temp. mínima en grados centígrados (hora)
DESCASC
Temp. media en grados centígrados
DESCASC
Racha de viento máxima en m/sg (hora)
DESCASC
Velocidad máxima media en intervalos de 10 minutos(hora)
DESCASC
Precipitaciones diarias en mm
DESCASC
Precipitaciones de 00:00 a 06:00 en mm
DESCASC
Precipitaciones de 06:00 a 12:00 en mm
DESCASC
Precipitaciones de 12:00 a 18:00 en mm
DESCASC
Precipitaciones de 18:00 a 24:00 en mm
DESCASC
22-08-2019 36.3 (18:10) 18 (08:50) 27.1 12.78 (15:10) 8.61 (15:10) 0 0 0 0 0
21-08-2019 35.6 (17:30) 15.1 (06:50) 25.3 7.78 (15:40) 5.28 (22:20) 0 0 0 0 0
20-08-2019 33.3 (17:00) 14.5 (08:10) 23.9 10.83 (14:50) 6.39 (17:10) 0 0 0 0 0
19-08-2019 32.3 (17:10) 16.1 (07:50) 24.2 13.33 (22:40) 8.89 (22:40) 0 0 0 0 0
18-08-2019 34.2 (17:20) 17.1 (00:00) 25.7 10.83 (15:40) 7.78 (23:20) 0 0 0 0 0
17-08-2019 37.3 (17:00) 15.9 (00:00) 26.6 13.33 (17:30) 8.61 (18:00) 0 0 0 0 0
16-08-2019 37.9 (17:00) 19.5 (00:00) 28.7 10.28 (17:30) 7.22 (17:30) 0 0 0 0 0
15-08-2019 38.3 (16:30) 18.3 (00:00) 28.3 9.72 (22:40) 6.39 (22:30) 0 0 0 0 0
14-08-2019 36.8 (16:40) 14.7 (00:00) 25.7 11.39 (17:30) 6.94 (17:30) 0 0 0 0 0
13-08-2019 35.1 (17:40) 14.3 (00:00) 24.7 9.17 (17:30) 5.28 (17:30) 0 0 0 0 0
12-08-2019 29.8 (17:20) 13.4 (00:00) 21.6 11.11 (00:10) 7.22 (00:20) 0 0 0 0 0
11-08-2019 27.7 (16:10) 14.3 (00:00) 21 13.06 (16:40) 8.61 (16:40) 0 0 0 0 0
10-08-2019 32.5 (17:20) 16.5 (00:00) 24.5 11.94 (21:40) 7.78 (21:40) 0 0 0 0 0
09-08-2019 30 (15:10) 20.6 (00:00) 25.3 13.33 (16:20) 8.89 (16:00) 0 0 0 0 0
08-08-2019 34.7 (17:30) 17.3 (00:00) 26 11.94 (22:20) 8.61 (22:00) 0 0 0 0 0
07-08-2019 29.3 (14:00) 17.8 (00:00) 23.5 11.11 (12:30) 5.56 (12:30) 0 0 0 0 0
06-08-2019 35 (17:00) 16.2 (00:00) 25.6 11.39 (18:10) 7.5 (17:40) 0 0 0 0 0
05-08-2019 35.3 (17:50) 15.9 (00:00) 25.6 12.22 (17:50) 7.78 (18:50) 0 0 0 0 0
04-08-2019 35.3 (18:10) 16.6 (00:00) 25.9 10.83 (22:10) 7.78 (20:50) 0 0 0 0 0
03-08-2019 34.6 (17:30) 16.2 (00:00) 25.4 11.39 (16:50) 7.78 (15:10) 0 0 0 0 0
02-08-2019 34.8 (17:20) 14.3 (00:00) 24.5 9.17 (15:30) 5.83 (17:40) 0 0 0 0 0
01-08-2019 34.3 (17:20) 17 (00:00) 25.6 10.28 (23:20) 7.5 (22:40) 0 0 0 0 0
31-07-2019 36.3 (17:30) 12.8 (00:00) 24.5 14.17 (17:00) 9.17 (21:30) 0 0 0 0 0
30-07-2019 31.5 (18:00) 12.3 (00:00) 21.9 8.89 (13:50) 5.28 (13:20) 0 0 0 0 0
29-07-2019 30.9 (17:40) 14.1 (00:00) 22.5 11.67 (19:40) 7.5 (19:50) 0 0 0 0 0
28-07-2019 32.2 (17:50) 14.2 (00:00) 23.2 10.28 (23:59) 7.5 (23:59) 0 0 0 0 0
27-07-2019 25.4 (18:10) 15.3 (00:00) 20.3 13.89 (15:40) 9.72 (18:10) 0.2 0 0 0.2 0
26-07-2019 28.8 (17:30) 14.4 (00:00) 21.6 12.5 (15:30) 7.78 (18:20) 0 0 0 0 0

Gráficas

Temp. máximas Temp. mínimas Temp. medias Precipitaciones Rachas de viento máximas Velocidades máximas media en intervalos de 10 minutos

Datos horarios

Fecha y hora oficial Temperatura (ºC) Velocidad del viento (km/h) Dirección del viento Racha (km/h) Dirección de racha Precipitación (mm) Presión (hPa) Tendencia (hPa) Humedad (%)
2019-08-24 23:00:00 29.6 14 Sudoeste 31 Sudoeste 0 971.4 1.1 30
2019-08-24 22:00:00 31.1 14 Sudoeste 24 Oeste 0 970.7 0 23
2019-08-24 21:00:00 33.7 14 Oeste 23 Oeste 0 970.3 -0.7 19
2019-08-24 20:00:00 35.4 11 Noroeste 24 Oeste 0 970.3 -1 19
2019-08-24 19:00:00 35.9 10 Noroeste 29 Oeste 0 970.7 -1.1 19
2019-08-24 18:00:00 36.6 14 Oeste 24 Oeste 0 971 -1.4 17
2019-08-24 17:00:00 35.5 14 Norte 33 Este 0 971.3 -1.7 18
2019-08-24 16:00:00 37.5 13 Sudoeste 26 Sudeste 0 971.8 -1.7 15
2019-08-24 15:00:00 35.5 7 Norte 16 Sudoeste 0 972.4 -1.3 17
2019-08-24 14:00:00 34 6 Sudoeste 21 Sudoeste 0 973 -0.8 22
2019-08-24 13:00:00 32.4 13 Sudoeste 23 Sudoeste 0 973.5 -0.1 25
2019-08-24 12:00:00 30.2 11 Sudoeste 18 Sudoeste 0 973.7 0.5 28
2019-08-24 11:00:00 27.1 5 Sudoeste 11 Sudoeste 0 973.8 1.2 33
2019-08-24 10:00:00 23.5 5 Sudoeste 9 Sudoeste 0 973.6 1.1 45
2019-08-24 09:00:00 20.6 6 Sudoeste 8 Sudoeste 0 973.2 0.8 54
2019-08-24 08:00:00 20 2 Sur 7 Nordeste 0 972.6 0.2 55
2019-08-24 07:00:00 20.4 3 Sur 9 Este 0 972.5 0.1 53
2019-08-24 06:00:00 22.6 6 Noroeste 15 Este 0 972.4 -0.1 48
2019-08-24 05:00:00 22.6 6 Este 8 Este 0 972.4 -0.1 46
2019-08-24 04:00:00 24.3 4 Oeste 12 Oeste 0 972.4 0 42
2019-08-24 03:00:00 25.5 8 Oeste 22 Oeste 0 972.5 0.3 40
2019-08-24 02:00:00 26.4 11 Oeste 17 Oeste 0 972.5 0.6 36
2019-08-24 01:00:00 27.4 7 Oeste 10 Oeste 0 972.4 1.1 29
2019-08-24 00:00:00 28.9 9 Sudoeste 15 Oeste 0 972.2 1.6 26
2019-08-23 23:00:00 30.6 5 Este 13 Este 0 971.9 1.3 23
2019-08-23 22:00:00 31.8 6 Norte 23 Nordeste 0 971.3 0.6 23
2019-08-23 21:00:00 33.7 4 Nordeste 13 Nordeste 0 970.6 -0.5 18
2019-08-23 20:00:00 35.1 9 Nordeste 27 Este 0 970.6 -0.9 16
2019-08-23 19:00:00 35.9 14 Nordeste 29 Nordeste 0 970.7 -1.2 16
2019-08-23 18:00:00 35.7 10 Norte 27 Sudeste 0 971.1 -1.3 16
2019-08-23 17:00:00 35.8 14 Este 29 Este 0 971.5 -1.4 17
2019-08-23 16:00:00 35.4 23 Nordeste 41 Nordeste 0 971.9 -1.6 18
2019-08-23 15:00:00 34.6 22 Nordeste 41 Este 0 972.4 -1.5 19
2019-08-23 14:00:00 33.9 21 Nordeste 37 Este 0 972.9 -1.1 20
2019-08-23 13:00:00 32.9 10 Este 27 Sur 0 973.5 -0.4 22
2019-08-23 12:00:00 31 6 Este 21 Nordeste 0 973.9 0.3 28
2019-08-23 11:00:00 28.9 6 Este 15 Sudeste 0 974 0.8 33
2019-08-23 10:00:00 25.6 5 Este 9 Este 0 973.9 1.1 46
2019-08-23 09:00:00 22.4 4 Este 10 Sudeste 0 973.6 1.1 57
2019-08-23 08:00:00 20.2 8 Este 12 Este 0 973.2 0.7 66
2019-08-23 07:00:00 21.8 9 Nordeste 13 Nordeste 0 972.8 0.2 61
2019-08-23 06:00:00 21.6 3 Oeste 8 Este 0 972.5 -0.1 60
2019-08-23 05:00:00 23.2 6 Este 8 Este 0 972.5 -0.3 55
2019-08-23 04:00:00 24.2 2 Norte 9 Oeste 0 972.6 -0.1 52
2019-08-23 03:00:00 24.5 2 Oeste 12 Oeste 0 972.6 -0.1 50
2019-08-23 02:00:00 25.2 10 Sudoeste 21 Sudoeste 0 972.8 0.4 48
2019-08-23 01:00:00 26.3 15 Sudoeste 28 Sudoeste 0 972.7 1 47
2019-08-23 00:00:00 27.7 18 Sudoeste 34 Sudoeste 0 972.7 1.5 43
2019-08-22 23:00:00 30.4 6 Oeste 13 Oeste 0 972.4 1.6 31
2019-08-22 22:00:00 31.5 4 Sudeste 17 Sudeste 0 971.7 0.9 29
2019-08-22 21:00:00 33.4 6 Sudeste 20 Este 0 971.2 0.2 24
2019-08-22 20:00:00 34.4 16 Este 27 Nordeste 0 970.8 -0.7 20
2019-08-22 19:00:00 34.8 14 Este 26 Este 0 970.8 -1 19
2019-08-22 18:00:00 36 8 Nordeste 37 Nordeste 0 971 -1.4 17
2019-08-22 17:00:00 35.3 16 Este 41 Nordeste 0 971.5 -1.5 19
2019-08-22 16:00:00 34.6 22 Este 46 Nordeste 0 971.8 -1.9 21
2019-08-22 15:00:00 35.1 21 Nordeste 40 Este 0 972.4 -1.8 21
2019-08-22 14:00:00 33.5 20 Este 36 Este 0 973 -1.4 27
2019-08-22 13:00:00 31.8 14 Este 26 Este 0 973.7 -0.5 29
2019-08-22 12:00:00 29.6 9 Este 15 Este 0 974.2 0.1 30
2019-08-22 11:00:00 26.4 3 Noroeste 10 Este 0 974.4 1 34
2019-08-22 10:00:00 22.9 6 Este 12 Este 0 974.2 1.4 40
2019-08-22 09:00:00 19.4 3 Sudoeste 10 Este 0 974.1 1.4 47
2019-08-22 08:00:00 18.6 3 Sudoeste 7 Sudoeste 0 973.4 0.7 49
2019-08-22 07:00:00 18.8 2 Sudeste 9 Este 0 972.8 0 47
2019-08-22 06:00:00 21.4 6 Este 11 Este 0 972.7 -0.4 40
2019-08-22 05:00:00 20.3 6 Este 10 Sudeste 0 972.7 -0.7 39
2019-08-22 04:00:00 21.9 5 Noroeste 10 Noroeste 0 972.8 -0.6 43
2019-08-22 03:00:00 24 6 Noroeste 12 Oeste 0 973.1 0.3 37
2019-08-22 02:00:00 24.8 8 Oeste 17 Oeste 0 973.4 1 33
2019-08-22 01:00:00 25.8 7 Oeste 19 Sudoeste 0 973.4 1.4 31
2019-08-22 00:00:00 27.3 3 Sudoeste 22 Norte 0 972.8 1.3 24
2019-08-21 23:00:00 29.8 18 Norte 26 Norte 0 972.4 1.3 16
2019-08-21 22:00:00 30.3 17 Norte 24 Norte 0 972 0.8 19
2019-08-21 21:00:00 31.5 12 Norte 19 Norte 0 971.5 0.2 21
2019-08-21 20:00:00 32.4 14 Norte 22 Norte 0 971.1 -0.4 21
2019-08-21 19:00:00 33 14 Norte 24 Norte 0 971.2 -1 21
2019-08-21 18:00:00 33.6 10 Norte 28 Nordeste 0 971.3 -1.3 21
2019-08-21 17:00:00 35 12 Sudoeste 27 Sudoeste 0 971.5 -1.4 19
2019-08-21 16:00:00 34.1 5 Sudoeste 28 Oeste 0 972.2 -1.1 20
2019-08-21 15:00:00 33.8 14 Oeste 23 Sudoeste 0 972.6 -1.2 23
2019-08-21 14:00:00 32.5 11 Sur 25 Sudoeste 0 972.9 -0.7 23
2019-08-21 13:00:00 31.3 12 Oeste 25 Sudoeste 0 973.3 -0.4 27
2019-08-21 12:00:00 28.9 7 Sudoeste 17 Sudoeste 0 973.8 0.4 32
2019-08-21 11:00:00 25.5 5 Nordeste 10 Este 0 973.6 0.4 30
2019-08-21 10:00:00 21.4 5 Este 9 Este 0 973.7 1.3 34
2019-08-21 09:00:00 17.1 2 Sudoeste 9 Sudoeste 0 973.4 1.2 45
2019-08-21 08:00:00 15.6 2 Este 9 Este 0 973.2 0.9 49
2019-08-21 07:00:00 15.6 7 Este 12 Este 0 972.4 0.3 48
2019-08-21 06:00:00 17.9 6 Este 14 Nordeste 0 972.2 0.4 39
2019-08-21 05:00:00 18.7 5 Este 9 Oeste 0 972.3 0.2 37
2019-08-21 04:00:00 18.9 8 Oeste 10 Sudoeste 0 972.1 -0.3 37
2019-08-21 03:00:00 21.1 7 Este 13 Este 0 971.8 -0.2 32
2019-08-21 02:00:00 21.1 6 Este 19 Sudoeste 0 972.1 0.2 30
2019-08-21 01:00:00 23.6 6 Sur 18 Oeste 0 972.4 1.1 24
2019-08-21 00:00:00 25.3 5 Este 14 Sudeste 0 972 0.9 22
2019-08-20 23:00:00 27.4 3 Este 21 Norte 0 971.9 0.9 20
2019-08-20 22:00:00 28.9 19 Norte 26 Norte 0 971.3 0.3 19
2019-08-20 21:00:00 30.3 18 Nordeste 23 Nordeste 0 971.1 0.1 17
2019-08-20 20:00:00 32.2 12 Nordeste 24 Nordeste 0 971 -0.3 14
2019-08-20 19:00:00 32.8 12 Norte 30 Este 0 971 -0.9 15
2019-08-20 18:00:00 32.9 19 Este 32 Nordeste 0 971 -1.1 16
2019-08-20 17:00:00 33.2 20 Este 34 Este 0 971.3 -1.5 17
2019-08-20 16:00:00 31.8 13 Nordeste 33 Este 0 971.9 -1.3 20
2019-08-20 15:00:00 32.3 16 Nordeste 39 Este 0 972.1 -1.5 20
2019-08-20 14:00:00 30.6 8 Sur 16 Sudoeste 0 972.8 -0.5 25
2019-08-20 13:00:00 27.4 5 Sudeste 12 Este 0 973.2 0.1 30
2019-08-20 12:00:00 23.6 5 Sur 12 Este 0 973.6 0.8 38
2019-08-20 11:00:00 21.2 4 Sudeste 9 Este 0 973.3 0.7 46
2019-08-20 10:00:00 18.4 3 Sudoeste 7 Sudoeste 0 973.1 0.8 57
2019-08-20 09:00:00 16 4 Sudoeste 9 Sudoeste 0 972.8 0.7 61
2019-08-20 08:00:00 14.7 8 Oeste 14 Oeste 0 972.6 0.5 65
2019-08-20 07:00:00 15.3 6 Oeste 11 Oeste 0 972.3 0.1 61
2019-08-20 06:00:00 15.7 8 Sudoeste 14 Oeste 0 972.1 -0.4 55
2019-08-20 05:00:00 16.5 9 Oeste 14 Sudoeste 0 972.1 -0.7 49
2019-08-20 04:00:00 17.2 8 Oeste 21 Oeste 0 972.2 -0.6 45
2019-08-20 03:00:00 17.7 9 Oeste 15 Oeste 0 972.5 0 41
2019-08-20 02:00:00 18.8 12 Sudoeste 26 Oeste 0 972.8 1 36
2019-08-20 01:00:00 20 16 Oeste 23 Sudoeste 0 972.8 1.8 36
2019-08-20 00:00:00 21.2 12 Sudoeste 33 Noroeste 0 972.5 1.8 38
2019-08-19 23:00:00 22.8 29 Oeste 48 Noroeste 0 971.8 1.2 35
2019-08-19 22:00:00 25.6 23 Oeste 39 Oeste 0 971 0.3 24
2019-08-19 21:00:00 28.5 19 Oeste 28 Oeste 0 970.7 -0.1 12
2019-08-19 20:00:00 30.1 18 Oeste 38 Sudoeste 0 970.6 -0.5 12
2019-08-19 19:00:00 31.1 24 Oeste 37 Oeste 0 970.7 -0.9 11
2019-08-19 18:00:00 32 20 Sudoeste 40 Sudoeste 0 970.8 -1.2 12
2019-08-19 17:00:00 31.5 15 Oeste 36 Sudoeste 0 971.1 -1.1 14
2019-08-19 16:00:00 31.1 23 Oeste 36 Oeste 0 971.6 -0.8 12
2019-08-19 15:00:00 30.7 18 Sudoeste 32 Oeste 0 972 -0.4 11
2019-08-19 14:00:00 29.8 19 Oeste 31 Sudoeste 0 972.2 0 14
2019-08-19 13:00:00 27.9 17 Sudoeste 27 Sudoeste 0 972.4 0.4 20
2019-08-19 12:00:00 26 15 Sur 22 Sur 0 972.4 0.3 32
2019-08-19 11:00:00 23 10 Sudoeste 19 Sudoeste 0 972.2 0 47
2019-08-19 10:00:00 19.6 6 Sudoeste 10 Sudoeste 0 972 0 62
2019-08-19 09:00:00 17.3 7 Sudoeste 13 Oeste 0 972.1 0.5 72
2019-08-19 08:00:00 16.3 10 Sudoeste 17 Sudoeste 0 972.2 0.5 76
2019-08-19 07:00:00 16.7 11 Sudoeste 15 Oeste 0 972 0.1 76
2019-08-19 06:00:00 18 15 Oeste 21 Oeste 0 971.6 -0.7 76
2019-08-19 05:00:00 19.2 12 Oeste 18 Sudoeste 0 971.7 -0.8 78
2019-08-19 04:00:00 19.8 13 Sudoeste 21 Oeste 0 971.9 -0.8 74
2019-08-19 03:00:00 21 14 Oeste 23 Oeste 0 972.3 0.1 73
2019-08-19 02:00:00 22.2 17 Sudoeste 27 Oeste 0 972.5 0.9 69
2019-08-19 01:00:00 23.5 12 Sudoeste 28 Noroeste 0 972.7 1.9 65
2019-08-19 00:00:00 24.8 17 Noroeste 36 Oeste 0 972.2 1.8 60
2019-08-18 23:00:00 26.4 22 Oeste 30 Oeste 0 971.6 1.7 50
2019-08-18 22:00:00 28.1 11 Oeste 26 Oeste 0 970.8 0.6 37
2019-08-18 21:00:00 30.1 19 Oeste 32 Oeste 0 970.4 0.2 31
2019-08-18 20:00:00 32.3 20 Oeste 36 Oeste 0 969.9 -0.5 23
2019-08-18 19:00:00 33.1 20 Oeste 39 Oeste 0 970.2 -0.6 20
2019-08-18 18:00:00 33.5 24 Oeste 37 Oeste 0 970.2 -0.9 23
2019-08-18 17:00:00 33.4 19 Oeste 39 Oeste 0 970.4 -1.2 23
2019-08-18 16:00:00 32.9 23 Sudoeste 39 Sudoeste 0 970.8 -1 22
2019-08-18 15:00:00 32.4 18 Sudoeste 32 Oeste 0 971.1 -0.8 23
2019-08-18 14:00:00 30.7 17 Oeste 34 Oeste 0 971.6 -0.1 23
2019-08-18 13:00:00 29.5 18 Sudoeste 29 Sudoeste 0 971.8 0.2 29
2019-08-18 12:00:00 27.3 14 Oeste 24 Oeste 0 971.9 0.8 35
2019-08-18 11:00:00 24.3 13 Sudoeste 20 Sudoeste 0 971.7 1 50
2019-08-18 10:00:00 20.7 5 Sudoeste 10 Sudoeste 0 971.6 1.6 61
2019-08-18 09:00:00 17.9 6 Sudoeste 17 Sudoeste 0 971.1 1.1 71
2019-08-18 08:00:00 17.2 14 Sudoeste 20 Sudoeste 0 970.7 0.6 68
2019-08-18 07:00:00 18.3 4 Sudoeste 7 Oeste 0 970 -0.4 62
2019-08-18 06:00:00 19.1 8 Sudoeste 10 Sudoeste 0 970 -0.6 63
2019-08-18 05:00:00 20 8 Sudoeste 12 Oeste 0 970.1 -0.5 54
2019-08-18 04:00:00 21.5 12 Oeste 15 Oeste 0 970.4 -0.1 50
2019-08-18 03:00:00 22.3 14 Sudoeste 19 Sudoeste 0 970.6 0.3 47
2019-08-18 02:00:00 23.3 17 Sudoeste 20 Oeste 0 970.6 0.7 47
2019-08-18 01:00:00 25.3 18 Sudoeste 27 Sudoeste 0 970.5 1.1 43
2019-08-18 00:00:00 26.8 11 Oeste 20 Oeste 0 970.3 1.3 34
2019-08-17 23:00:00 28.2 15 Oeste 26 Oeste 0 969.9 0.9 24
2019-08-17 22:00:00 30.1 18 Oeste 28 Oeste 0 969.4 0.3 16
2019-08-17 21:00:00 33.3 22 Oeste 39 Sudoeste 0 969 -0.4 12
2019-08-17 20:00:00 35.3 28 Oeste 44 Oeste 0 969 -0.7 10
2019-08-17 19:00:00 36.2 28 Oeste 46 Sudoeste 0 969.1 -1 10
2019-08-17 18:00:00 36.8 31 Sudoeste 48 Sudoeste 0 969.4 -1.2 12
2019-08-17 17:00:00 37 24 Sudoeste 41 Sudoeste 0 969.7 -1.5 15
2019-08-17 16:00:00 36.5 24 Sudoeste 44 Sudoeste 0 970.1 -1.7 17
2019-08-17 15:00:00 35.7 27 Sudoeste 42 Oeste 0 970.6 -1.6 17
2019-08-17 14:00:00 35.2 25 Sudoeste 37 Sudoeste 0 971.2 -1.2 17
2019-08-17 13:00:00 33.5 14 Sudoeste 23 Sudoeste 0 971.8 -0.7 17
2019-08-17 12:00:00 29.2 5 Sudoeste 10 Sudoeste 0 972.2 -0.3 28
2019-08-17 11:00:00 25.2 3 Sudoeste 6 Sudoeste 0 972.4 0.2 35
2019-08-17 10:00:00 21.4 3 Sudeste 9 Este 0 972.5 0.3 45
2019-08-17 09:00:00 19 2 Este 7 Este 0 972.5 0.6 52
2019-08-17 08:00:00 16.2 4 Nordeste 7 Este 0 972.2 -0.2 61
2019-08-17 07:00:00 18.2 4 Oeste 9 Sur 0 972.2 -0.3 55
2019-08-17 06:00:00 18.6 3 Sudoeste 13 Sudoeste 0 971.9 -0.7 52
2019-08-17 05:00:00 19.6 11 Sudoeste 13 Sudoeste 0 972.4 -0.5 48
2019-08-17 04:00:00 21.1 7 Sudoeste 9 Sudoeste 0 972.5 -0.5 45
2019-08-17 03:00:00 22.8 6 Oeste 13 Oeste 0 972.6 -0.2 40
2019-08-17 02:00:00 23.8 9 Oeste 19 Oeste 0 972.9 0.6 38
2019-08-17 01:00:00 25.1 14 Sudoeste 21 Sudoeste 0 973 1.5 36
2019-08-17 00:00:00 27.3 13 Sudoeste 25 Oeste 0 972.8 1.7 32
2019-08-16 23:00:00 28.8 18 Oeste 28 Oeste 0 972.3 1.4 29
2019-08-16 22:00:00 31.4 20 Oeste 29 Oeste 0 971.5 0.5 20
2019-08-16 21:00:00 34.4 21 Oeste 33 Sudoeste 0 971.1 -0.2 17
2019-08-16 20:00:00 36.5 20 Oeste 34 Sudoeste 0 970.9 -0.7 16
2019-08-16 19:00:00 37.2 22 Sudoeste 36 Sudoeste 0 971 -1.1 14
2019-08-16 18:00:00 37.4 21 Oeste 37 Sudoeste 0 971.3 -1.2 14
2019-08-16 17:00:00 37.9 22 Sudoeste 35 Sudoeste 0 971.6 -1.3 14
2019-08-16 16:00:00 37.3 16 Oeste 28 Sur 0 972.1 -1.3 15
2019-08-16 15:00:00 36.7 13 Sudoeste 28 Sudoeste 0 972.5 -1.2 17
2019-08-16 14:00:00 35.4 13 Sudoeste 33 Sudoeste 0 972.9 -0.8 20
2019-08-16 13:00:00 33 11 Oeste 22 Sudoeste 0 973.4 -0.5 25
2019-08-16 12:00:00 30.3 6 Sudoeste 11 Oeste 0 973.7 0 32
2019-08-16 11:00:00 26.5 4 Sudoeste 8 Sudoeste 0 973.7 0.3 44
2019-08-16 10:00:00 23.7 3 Sur 7 Nordeste 0 973.9 0.9 52
2019-08-16 09:00:00 20.5 4 Sudoeste 6 Sudoeste 0 973.7 0.9 60
2019-08-16 08:00:00 19.6 3 Sudoeste 8 Sudoeste 0 973.4 0.3 64
2019-08-16 07:00:00 19.9 9 Sudoeste 10 Sudoeste 0 973 -0.3 61
2019-08-16 06:00:00 20.6 6 Sudoeste 13 Oeste 0 972.8 -0.7 59
2019-08-16 05:00:00 21.3 7 Oeste 13 Oeste 0 973.1 -0.5 57
2019-08-16 04:00:00 22.3 12 Oeste 19 Sudoeste 0 973.3 -0.3 51
2019-08-16 03:00:00 23.8 14 Oeste 17 Oeste 0 973.5 0.2 45
2019-08-16 02:00:00 25.2 9 Sudoeste 12 Oeste 0 973.6 0.8 39
2019-08-16 01:00:00 26.5 9 Sudoeste 18 Sudoeste 0 973.6 1.3 34
2019-08-16 00:00:00 28.6 12 Sudoeste 32 Noroeste 0 973.3 1.4 29
2019-08-15 23:00:00 30.7 21 Oeste 35 Oeste 0 972.8 1.1 25
2019-08-15 22:00:00 32.9 12 Noroeste 22 Noroeste 0 972.3 0.5 19
2019-08-15 21:00:00 34.9 20 Noroeste 28 Noroeste 0 971.9 0.1 18
2019-08-15 20:00:00 36.9 17 Oeste 33 Oeste 0 971.7 -0.3 14
2019-08-15 19:00:00 37.4 18 Oeste 35 Oeste 0 971.8 -0.8 14
2019-08-15 18:00:00 38.2 19 Oeste 28 Oeste 0 971.8 -1.2 14
2019-08-15 17:00:00 38.1 16 Sudoeste 33 Oeste 0 972 -1.7 15
2019-08-15 16:00:00 37.6 17 Sudoeste 33 Sudoeste 0 972.6 -1.4 14
2019-08-15 15:00:00 37.1 21 Sudoeste 31 Sudoeste 0 973 -1.4 14
2019-08-15 14:00:00 35.7 6 Este 21 Sur 0 973.7 -0.8 15
2019-08-15 13:00:00 34.4 4 Norte 12 Este 0 974 -0.5 20
2019-08-15 12:00:00 31.3 4 Sudeste 11 Este 0 974.4 -0.2 29
2019-08-15 11:00:00 27.3 4 Este 10 Este 0 974.5 0.1 38
2019-08-15 10:00:00 22.8 7 Este 10 Nordeste 0 974.5 0.6 46
2019-08-15 09:00:00 20.2 4 Este 9 Este 0 974.6 0.6 54
2019-08-15 08:00:00 18.7 4 Sudeste 7 Sudeste 0 974.4 0.7 60
2019-08-15 07:00:00 19.3 5 Nordeste 6 Este 0 973.9 0.1 56
2019-08-15 06:00:00 20.5 4 Sur 8 Sudoeste 0 974 0 56
2019-08-15 05:00:00 21.3 5 Sur 8 Sur 0 973.7 -0.7 48
2019-08-15 04:00:00 22.8 4 Sudoeste 9 Sudoeste 0 973.8 -0.6 45
2019-08-15 03:00:00 23.3 3 Oeste 7 Sudeste 0 974 -0.3 39
2019-08-15 02:00:00 24.4 5 Nordeste 6 Nordeste 0 974.4 0.6 34
2019-08-15 01:00:00 25.5 4 Nordeste 10 Este 0 974.4 1.2 26
2019-08-15 00:00:00 27.7 3 Sudoeste 27 Oeste 0 974.3 1.5 26
2019-08-14 23:00:00 30.3 13 Noroeste 27 Noroeste 0 973.8 1 18
2019-08-14 22:00:00 31.3 19 Noroeste 24 Noroeste 0 973.2 0.3 14
2019-08-14 21:00:00 33.4 14 Noroeste 25 Noroeste 0 972.8 -0.2 13
2019-08-14 20:00:00 34.8 13 Noroeste 23 Noroeste 0 972.8 -0.5 11
2019-08-14 19:00:00 35.8 15 Noroeste 36 Noroeste 0 972.9 -0.6 10
2019-08-14 18:00:00 36.4 15 Oeste 41 Oeste 0 973 -1 10
2019-08-14 17:00:00 35.9 17 Oeste 36 Sudoeste 0 973.3 -1.4 10
2019-08-14 16:00:00 36.5 12 Oeste 27 Sudoeste 0 973.5 -1.8 11
2019-08-14 15:00:00 35.7 12 Sudoeste 21 Sudoeste 0 974 -1.4 12
2019-08-14 14:00:00 34.8 10 Este 18 Oeste 0 974.7 -0.7 11
2019-08-14 13:00:00 32.7 9 Este 16 Nordeste 0 975.3 -0.1 12
2019-08-14 12:00:00 30.3 5 Nordeste 10 Este 0 975.4 0.2 16
2019-08-14 11:00:00 26.2 5 Este 12 Este 0 975.4 0.6 24
2019-08-14 10:00:00 20.6 6 Este 9 Este 0 975.4 1 33
2019-08-14 09:00:00 17.2 0 Calma 8 Este 0 975.2 0.8 47
2019-08-14 08:00:00 14.7 5 Este 9 Este 0 974.8 0.4 56
2019-08-14 07:00:00 15.1 6 Este 10 Este 0 974.4 -0.1 53
2019-08-14 06:00:00 16.9 7 Este 8 Este 0 974.4 -0.1 42
2019-08-14 05:00:00 18.1 8 Este 9 Este 0 974.4 -0.3 38
2019-08-14 04:00:00 20.2 3 Sudeste 6 Este 0 974.5 0.1 33
2019-08-14 03:00:00 21.1 6 Sur 8 Sudoeste 0 974.5 0.6 30
2019-08-14 02:00:00 22.2 3 Sudoeste 6 Sudoeste 0 974.7 1.2 26
2019-08-14 01:00:00 23 5 Sudoeste 11 Sur 0 974.4 1.6 24
2019-08-14 00:00:00 25.6 5 Sudoeste 18 Noroeste 0 973.9 1.5 16
2019-08-13 23:00:00 26.4 3 Este 20 Norte 0 973.5 1.4 14
2019-08-13 22:00:00 28.9 16 Norte 24 Norte 0 972.8 0.7 11
2019-08-13 21:00:00 30.9 15 Norte 28 Norte 0 972.4 0.3 10
2019-08-13 20:00:00 32.7 17 Norte 27 Norte 0 972.1 -0.4 10
2019-08-13 19:00:00 33.4 14 Noroeste 24 Noroeste 0 972.1 -1 10
2019-08-13 18:00:00 34.3 13 Oeste 33 Sudoeste 0 972.1 -1.4 10
2019-08-13 17:00:00 34.2 12 Sur 30 Sudoeste 0 972.5 -1.4 11
2019-08-13 16:00:00 33.4 7 Sudoeste 30 Sudoeste 0 973.1 -1.2 12
2019-08-13 15:00:00 32.7 10 Sur 22 Sur 0 973.5 -1.2 12
2019-08-13 14:00:00 31.7 10 Sudoeste 17 Sur 0 973.9 -0.8 12
2019-08-13 13:00:00 29.4 8 Este 14 Este 0 974.3 -0.1 16
2019-08-13 12:00:00 26.4 3 Sudoeste 10 Sudoeste 0 974.7 0.6 23
2019-08-13 11:00:00 23 4 Sudeste 8 Este 0 974.7 1 29
2019-08-13 10:00:00 18.7 5 Este 11 Este 0 974.4 1 41
2019-08-13 09:00:00 16.5 4 Este 8 Este 0 974.1 1 39
2019-08-13 08:00:00 14.7 4 Este 5 Sudeste 0 973.7 0.6 47
2019-08-13 07:00:00 14.9 3 Sudoeste 8 Sudoeste 0 973.4 0 48
2019-08-13 06:00:00 16 3 Este 11 Sudoeste 0 973.1 -0.7 43
2019-08-13 05:00:00 17.1 7 Sudoeste 9 Sudoeste 0 973.1 -0.9 35
2019-08-13 04:00:00 18.3 3 Noroeste 9 Sudoeste 0 973.4 -0.5 28
2019-08-13 03:00:00 19.8 4 Sur 10 Sudoeste 0 973.8 0.1 25
2019-08-13 02:00:00 21.2 5 Sudoeste 12 Sudoeste 0 974 0.4 23
2019-08-13 01:00:00 22 6 Oeste 17 Norte 0 973.9 0.8 20
2019-08-13 00:00:00 23.2 6 Nordeste 24 Norte 0 973.7 1.1 18
2019-08-12 23:00:00 25.5 16 Norte 23 Noroeste 0 973.6 1.4 16
2019-08-12 22:00:00 26.1 16 Noroeste 22 Noroeste 0 973.1 1 14
2019-08-12 21:00:00 27.5 17 Noroeste 28 Norte 0 972.6 0.4 13
2019-08-12 20:00:00 28.3 21 Noroeste 36 Norte 0 972.2 -0.5 13
2019-08-12 19:00:00 28.6 18 Norte 35 Norte 0 972.1 -1.2 14
2019-08-12 18:00:00 29.4 15 Nordeste 33 Nordeste 0 972.2 -1.8 12
2019-08-12 17:00:00 29.2 15 Norte 33 Nordeste 0 972.7 -1.7 12
2019-08-12 16:00:00 28.3 13 Norte 32 Norte 0 973.3 -1.7 14
2019-08-12 15:00:00 27.7 17 Norte 36 Norte 0 974 -1.1 16
2019-08-12 14:00:00 26.1 15 Norte 37 Noroeste 0 974.4 -0.6 19
2019-08-12 13:00:00 25.1 23 Norte 37 Norte 0 975 -0.1 21
2019-08-12 12:00:00 24.1 24 Nordeste 38 Norte 0 975.1 0.1 24
2019-08-12 11:00:00 21.9 18 Norte 36 Nordeste 0 975 0.4 32
2019-08-12 10:00:00 19.8 3 Norte 17 Norte 0 975.1 1 43
2019-08-12 09:00:00 16.9 13 Norte 24 Norte 0 975 0.6 54
2019-08-12 08:00:00 14 7 Noroeste 26 Norte 0 974.6 0.2 65
2019-08-12 07:00:00 13.5 6 Sudoeste 10 Sudoeste 0 974.1 -0.7 66
2019-08-12 06:00:00 14 6 Sudoeste 12 Oeste 0 974.4 -0.8 64
2019-08-12 05:00:00 15.7 9 Oeste 23 Oeste 0 974.4 -1.2 58
2019-08-12 04:00:00 16.4 5 Nordeste 17 Noroeste 0 974.8 -0.9 56
2019-08-12 03:00:00 17.3 5 Este 22 Sudoeste 0 975.2 -0.2 53
2019-08-12 02:00:00 17.5 9 Sur 15 Sudoeste 0 975.6 0.4 50
2019-08-12 01:00:00 18.8 7 Sur 40 Noroeste 0 975.7 1.1 44
2019-08-12 00:00:00 20.4 24 Noroeste 37 Noroeste 0 975.4 1.4 39
2019-08-11 23:00:00 21.6 24 Noroeste 34 Oeste 0 975.2 1.5 33
2019-08-11 22:00:00 22.5 12 Oeste 28 Oeste 0 974.6 0.6 31
2019-08-11 21:00:00 24.5 23 Oeste 33 Oeste 0 974 0 27
2019-08-11 20:00:00 26.8 18 Oeste 37 Noroeste 0 973.7 -0.6 23
2019-08-11 19:00:00 26.3 22 Oeste 37 Oeste 0 974 -0.6 24
2019-08-11 18:00:00 25.8 22 Oeste 41 Oeste 0 974 -1.1 24
2019-08-11 17:00:00 26.6 27 Oeste 47 Oeste 0 974.3 -1.3 22
2019-08-11 16:00:00 26.4 27 Oeste 43 Noroeste 0 974.6 -1.4 21
2019-08-11 15:00:00 26.2 27 Oeste 43 Oeste 0 975.1 -0.9 22
2019-08-11 14:00:00 25.1 20 Oeste 40 Oeste 0 975.6 -0.2 23
2019-08-11 13:00:00 23.4 25 Oeste 41 Oeste 0 976 0.4 27
2019-08-11 12:00:00 22.5 19 Oeste 32 Oeste 0 976 0.3 33
2019-08-11 11:00:00 20 16 Oeste 30 Oeste 0 975.8 0.7 47
2019-08-11 10:00:00 17.9 18 Oeste 27 Oeste 0 975.6 0.9 55
2019-08-11 09:00:00 16.2 2 Oeste 18 Oeste 0 975.7 1.1 67
2019-08-11 08:00:00 14.3 9 Sudoeste 21 Sudoeste 0 975.1 0.7 73
2019-08-11 07:00:00 14.8 12 Sudoeste 18 Oeste 0 974.7 0.6 68
2019-08-11 06:00:00 15.6 13 Sudoeste 25 Oeste 0 974.6 0 64
2019-08-11 05:00:00 17 17 Oeste 31 Oeste 0 974.4 -0.6 58
2019-08-11 04:00:00 17.9 18 Oeste 24 Oeste 0 974.1 -0.6 54
2019-08-11 03:00:00 17.9 8 Sudoeste 19 Oeste 0 974.6 0.3 56
2019-08-11 02:00:00 19 13 Oeste 28 Oeste 0 975 1.1 56
2019-08-11 01:00:00 20.1 23 Oeste 31 Oeste 0 974.7 1.3 54
2019-08-11 00:00:00 21.7 17 Oeste 35 Oeste 0 974.3 1.4 49
2019-08-10 23:00:00 23.4 21 Oeste 30 Oeste 0 973.9 1.5 39
2019-08-10 22:00:00 24.7 22 Oeste 43 Oeste 0 973.4 0.9 33
2019-08-10 21:00:00 26.9 27 Oeste 42 Oeste 0 972.9 0.1 28
2019-08-10 20:00:00 30.2 23 Oeste 37 Oeste 0 972.4 -1 18
2019-08-10 19:00:00 31.4 19 Oeste 37 Oeste 0 972.5 -1.6 14
2019-08-10 18:00:00 32.4 16 Oeste 28 Oeste 0 972.8 -1.9 12
2019-08-10 17:00:00 31.9 11 Oeste 24 Sudoeste 0 973.4 -2 13
2019-08-10 16:00:00 31.5 13 Sudoeste 26 Oeste 0 974.1 -1.6 14
2019-08-10 15:00:00 30 13 Sur 31 Sudoeste 0 974.7 -1.2 17
2019-08-10 14:00:00 29 7 Sur 27 Sudoeste 0 975.4 -0.5 18
2019-08-10 13:00:00 27 10 Sudoeste 24 Sudoeste 0 975.7 -0.4 28
2019-08-10 12:00:00 25.6 11 Sudoeste 21 Este 0 975.9 -0.2 38
2019-08-10 11:00:00 23.1 5 Sudoeste 13 Sudeste 0 975.9 -0.2 45
2019-08-10 10:00:00 20 8 Este 13 Este 0 976.1 0.5 60
2019-08-10 09:00:00 17.5 5 Este 8 Nordeste 0 976.1 0.8 73
2019-08-10 08:00:00 16.6 4 Noroeste 6 Oeste 0 976.1 0.7 76
2019-08-10 07:00:00 17 2 Oeste 8 Nordeste 0 975.6 0.4 74
2019-08-10 06:00:00 17.8 5 Este 9 Este 0 975.3 0.1 70
2019-08-10 05:00:00 18.2 6 Nordeste 10 Nordeste 0 975.4 0.1 71
2019-08-10 04:00:00 18.9 6 Este 12 Noroeste 0 975.2 -0.3 68
2019-08-10 03:00:00 19.7 9 Oeste 18 Oeste 0 975.2 -0.1 64
2019-08-10 02:00:00 20.9 5 Oeste 14 Noroeste 0 975.3 0.3 59
2019-08-10 01:00:00 21.9 8 Oeste 14 Oeste 0 975.5 1.5 58
2019-08-10 00:00:00 22.8 9 Oeste 23 Oeste 0 975.3 1.9 63
2019-08-09 23:00:00 23.3 15 Oeste 25 Oeste 0 975 2 63
2019-08-09 22:00:00 24.4 19 Oeste 30 Oeste 0 974 0.9 60
2019-08-09 21:00:00 26 23 Oeste 30 Oeste 0 973.4 0.1 55
2019-08-09 20:00:00 28.5 20 Oeste 32 Oeste 0 973 -0.6 47
2019-08-09 19:00:00 29.1 18 Oeste 37 Oeste 0 973.1 -0.4 48
2019-08-09 18:00:00 29.2 24 Oeste 41 Oeste 0 973.3 -0.6 49
2019-08-09 17:00:00 29.1 24 Oeste 48 Oeste 0 973.6 -0.2 51
2019-08-09 16:00:00 29.5 32 Sudoeste 42 Oeste 0 973.5 -0.3 50
2019-08-09 15:00:00 29.1 27 Sudoeste 41 Oeste 0 973.9 0 49
2019-08-09 14:00:00 29.5 22 Sudoeste 33 Sudoeste 0 973.8 -0.2 48
2019-08-09 13:00:00 28.4 21 Sudoeste 36 Sudoeste 0 973.8 -0.2 52
2019-08-09 12:00:00 26.4 13 Sudoeste 26 Sudoeste 0 973.9 0.5 60
2019-08-09 11:00:00 23.6 14 Sudoeste 19 Sudoeste 0 974 1 71
2019-08-09 10:00:00 21.5 13 Sudoeste 18 Sudoeste 0 974 1.3 83
2019-08-09 09:00:00 21 11 Sudoeste 17 Sur 0 973.4 0.8 83
2019-08-09 08:00:00 21.1 13 Sudoeste 23 Sudoeste 0 973 0.3 80
2019-08-09 07:00:00 21 13 Sudoeste 18 Sudoeste 0 972.7 0 80
2019-08-09 06:00:00 20.7 11 Sudoeste 17 Sudoeste 0 972.6 -0.1 81
2019-08-09 05:00:00 21.2 10 Sudoeste 24 Oeste 0 972.7 0 78
2019-08-09 04:00:00 20.8 15 Oeste 22 Oeste 0 972.7 0.2 81
2019-08-09 03:00:00 21 10 Sudoeste 27 Sudoeste 0 972.7 0.4 77
2019-08-09 02:00:00 21.9 20 Oeste 27 Sudoeste 0 972.7 1 73
2019-08-09 01:00:00 22.8 16 Sudoeste 24 Sudoeste 0 972.5 2.2 64
2019-08-09 00:00:00 24.4 19 Sudoeste 36 Oeste 0 972.3 2.6 54
2019-08-08 23:00:00 25.8 30 Oeste 43 Oeste 0 971.7 2.2 55
2019-08-08 22:00:00 28.1 31 Oeste 42 Oeste 0 970.3 0.7 48
2019-08-08 21:00:00 30.4 27 Oeste 39 Oeste 0 969.7 0 30
2019-08-08 20:00:00 32 26 Oeste 40 Oeste 0 969.5 -0.4 29
2019-08-08 19:00:00 33.1 28 Oeste 41 Sudoeste 0 969.6 -0.8 26
2019-08-08 18:00:00 34.4 23 Sudoeste 42 Oeste 0 969.7 -1 22
2019-08-08 17:00:00 34.2 27 Oeste 41 Sudoeste 0 969.9 -1.3 22
2019-08-08 16:00:00 34.3 22 Sudoeste 40 Sudoeste 0 970.4 -1.3 22
2019-08-08 15:00:00 33.3 21 Sudoeste 33 Oeste 0 970.7 -1.3 21
2019-08-08 14:00:00 32.4 18 Sudoeste 28 Sudoeste 0 971.2 -0.8 23
2019-08-08 13:00:00 30.1 9 Sudoeste 15 Sur 0 971.7 -0.3 28
2019-08-08 12:00:00 27.9 5 Sur 12 Norte 0 972 0.1 35
2019-08-08 11:00:00 25.6 5 Este 10 Nordeste 0 972 0.4 46
2019-08-08 10:00:00 22.1 5 Nordeste 11 Este 0 972 0.5 58
2019-08-08 09:00:00 19.1 5 Este 8 Este 0 971.9 0.4 66
2019-08-08 08:00:00 17.3 5 Este 6 Este 0 971.6 -0.1 76
2019-08-08 07:00:00 18.6 0 Calma 3 Nordeste 0 971.5 -0.5 74
2019-08-08 06:00:00 18.6 2 Sur 7 Sudoeste 0 971.5 -0.5 71
2019-08-08 05:00:00 19.6 3 Oeste 11 Oeste 0 971.7 -0.4 69
2019-08-08 04:00:00 20.1 6 Oeste 10 Sudoeste 0 972 0 64
2019-08-08 03:00:00 21 7 Oeste 12 Sudoeste 0 972 0 59
2019-08-08 02:00:00 21.5 6 Sudoeste 10 Sudoeste 0 972.1 0.4 53
2019-08-08 01:00:00 22.9 6 Oeste 10 Oeste 0 972 0.8 48
2019-08-08 00:00:00 23.7 3 Oeste 18 Oeste 0 972 1.2 46
2019-08-07 23:00:00 24.3 14 Oeste 18 Oeste 0 971.7 1.1 44
2019-08-07 22:00:00 25.3 13 Oeste 21 Oeste 0 971.2 0.1 40
2019-08-07 21:00:00 27.5 13 Oeste 17 Sudoeste 0 970.8 -0.1 33
2019-08-07 20:00:00 28.4 8 Sudeste 12 Sudeste 0 970.6 -0.1 35
2019-08-07 19:00:00 28.1 4 Sudoeste 15 Sudoeste 0 971.1 -0.5 38
2019-08-07 18:00:00 26.6 6 Noroeste 12 Norte 0 970.9 -0.4 41
2019-08-07 17:00:00 26.6 5 Norte 22 Oeste 0 970.7 -0.8 43
2019-08-07 16:00:00 26.3 16 Oeste 22 Oeste 0 971.6 -0.4 48
2019-08-07 15:00:00 26.7 12 Sudoeste 18 Sudoeste 0 971.3 -0.4 44
2019-08-07 14:00:00 28.6 7 Nordeste 19 Sur 0 971.5 0 31
2019-08-07 13:00:00 26.6 11 Sur 40 Este 0 972 1 42
2019-08-07 12:00:00 25.6 10 Sudoeste 21 Sur 0 971.7 1.2 49
2019-08-07 11:00:00 23.7 6 Sur 15 Sudoeste 0 971.5 1.2 60
2019-08-07 10:00:00 21.1 10 Sudoeste 15 Sudoeste 0 971 1.1 70
2019-08-07 09:00:00 19.1 6 Sudoeste 14 Sudoeste 0 970.5 0.8 77
2019-08-07 08:00:00 17.9 10 Oeste 15 Oeste 0 970.3 0.6 81
2019-08-07 07:00:00 18.1 9 Oeste 17 Oeste 0 969.9 0.2 79
2019-08-07 06:00:00 18.9 14 Oeste 21 Oeste 0 969.7 -0.2 77
2019-08-07 05:00:00 19.3 12 Sudoeste 15 Oeste 0 969.7 -0.5 74
2019-08-07 04:00:00 20.2 11 Sudoeste 15 Oeste 0 969.7 -0.5 69
2019-08-07 03:00:00 21.1 8 Oeste 15 Sudoeste 0 969.9 -0.2 64
2019-08-07 02:00:00 22.6 9 Sudoeste 20 Oeste 0 970.2 0.5 58
2019-08-07 01:00:00 23.8 13 Oeste 21 Oeste 0 970.2 1.6 54
2019-08-07 00:00:00 24.9 17 Oeste 29 Oeste 0 970.1 2 49
2019-08-06 23:00:00 26.3 22 Oeste 33 Oeste 0 969.7 1.8 44
2019-08-06 22:00:00 28.4 23 Oeste 32 Oeste 0 968.6 0.4 36
2019-08-06 21:00:00 30.7 25 Oeste 35 Sudoeste 0 968.1 -0.5 28
2019-08-06 20:00:00 32.4 22 Oeste 41 Sudoeste 0 967.9 -0.9 25
2019-08-06 19:00:00 33.1 26 Oeste 41 Oeste 0 968.2 -1.1 23
2019-08-06 18:00:00 33.8 26 Oeste 39 Oeste 0 968.6 -1.3 19
2019-08-06 17:00:00 34.7 23 Oeste 37 Sudoeste 0 968.8 -1.7 15
2019-08-06 16:00:00 33.9 23 Sudoeste 37 Sudoeste 0 969.3 -1.4 17
2019-08-06 15:00:00 32.9 22 Sudoeste 37 Oeste 0 969.9 -1 17
2019-08-06 14:00:00 32.3 20 Sudoeste 32 Sudoeste 0 970.5 -0.3 20
2019-08-06 13:00:00 31.3 22 Sudoeste 32 Sudoeste 0 970.7 -0.6 23
2019-08-06 12:00:00 29.3 8 Sudoeste 15 Sudoeste 0 970.9 -0.4 30
2019-08-06 11:00:00 25.6 5 Este 12 Este 0 970.8 -0.7 41
2019-08-06 10:00:00 21.5 8 Este 13 Este 0 971.3 0.4 57
2019-08-06 09:00:00 18.7 4 Nordeste 10 Sudoeste 0 971.3 0.3 63
2019-08-06 08:00:00 16.2 7 Sudoeste 16 Sudoeste 0 971.5 0.6 69
2019-08-06 07:00:00 17.5 8 Oeste 15 Oeste 0 970.9 -0.3 63
2019-08-06 06:00:00 18.1 10 Oeste 13 Oeste 0 971 -0.3 60
2019-08-06 05:00:00 19.1 8 Oeste 10 Oeste 0 970.9 -0.5 56
2019-08-06 04:00:00 20.1 8 Oeste 14 Oeste 0 971.2 -0.2 51
2019-08-06 03:00:00 21.5 9 Oeste 14 Oeste 0 971.3 0.2 46
2019-08-06 02:00:00 22.7 12 Oeste 19 Sudoeste 0 971.4 1 42
2019-08-06 01:00:00 24.2 14 Sudoeste 27 Oeste 0 971.4 1.7 36
2019-08-06 00:00:00 25.7 14 Sudoeste 24 Noroeste 0 971.1 1.9 29
2019-08-05 23:00:00 27.7 18 Oeste 23 Oeste 0 970.4 1.3 23
2019-08-05 22:00:00 30.1 19 Oeste 28 Oeste 0 969.7 0.6 19
2019-08-05 21:00:00 32.3 18 Sudoeste 33 Oeste 0 969.2 0 14
2019-08-05 20:00:00 33.9 24 Oeste 40 Sudoeste 0 969.1 -0.5 13
2019-08-05 19:00:00 34.6 24 Oeste 40 Sudoeste 0 969.1 -0.8 10
2019-08-05 18:00:00 34.7 26 Sudoeste 44 Sudoeste 0 969.2 -1.1 10
2019-08-05 17:00:00 34.9 22 Oeste 36 Oeste 0 969.6 -1 11
2019-08-05 16:00:00 34.5 17 Sudoeste 34 Sudoeste 0 969.9 -1.3 12
2019-08-05 15:00:00 34 20 Oeste 35 Sudoeste 0 970.3 -1.4 11
2019-08-05 14:00:00 33 19 Sudoeste 31 Sudoeste 0 970.6 -1.3 13
2019-08-05 13:00:00 31.4 12 Sudoeste 18 Sudoeste 0 971.2 -0.8 18
2019-08-05 12:00:00 27.2 8 Sudoeste 12 Sudoeste 0 971.7 -0.3 29
2019-08-05 11:00:00 24.2 2 Oeste 9 Este 0 971.9 0 46
2019-08-05 10:00:00 20.2 6 Este 12 Este 0 972 0.2 58
2019-08-05 09:00:00 17.4 2 Oeste 8 Este 0 972 0.2 66
2019-08-05 08:00:00 15.9 3 Norte 5 Sudoeste 0 971.9 0 72
2019-08-05 07:00:00 16.4 3 Sudoeste 11 Sudoeste 0 971.8 -0.3 71
2019-08-05 06:00:00 17.5 4 Sudoeste 6 Sudoeste 0 971.8 -0.4 66
2019-08-05 05:00:00 18.2 5 Sudoeste 12 Sudoeste 0 971.9 -0.6 63
2019-08-05 04:00:00 19.3 5 Sudoeste 16 Sudoeste 0 972.1 -0.4 59
2019-08-05 03:00:00 20.2 10 Oeste 15 Oeste 0 972.2 0 55
2019-08-05 02:00:00 21.8 12 Sudoeste 17 Oeste 0 972.5 0.9 50
2019-08-05 01:00:00 23.5 14 Oeste 18 Oeste 0 972.5 1.7 45
2019-08-05 00:00:00 24.9 12 Oeste 24 Oeste 0 972.2 1.9 42
2019-08-04 23:00:00 26.6 18 Oeste 39 Oeste 0 971.6 1.5 36
2019-08-04 22:00:00 28.7 24 Oeste 36 Oeste 0 970.8 0.8 31
2019-08-04 21:00:00 31.8 23 Oeste 36 Oeste 0 970.3 0.3 24
2019-08-04 20:00:00 34.1 22 Oeste 32 Sudoeste 0 970.1 -0.3 19
2019-08-04 19:00:00 34.6 19 Oeste 35 Oeste 0 970 -0.9 17
2019-08-04 18:00:00 35.1 18 Sudoeste 31 Oeste 0 970 -1.3 17
2019-08-04 17:00:00 34.7 22 Sudoeste 39 Sudoeste 0 970.4 -1.3 16
2019-08-04 16:00:00 34.2 15 Sudoeste 32 Sudoeste 0 970.9 -1.2 19
2019-08-04 15:00:00 32.5 15 Oeste 30 Sudoeste 0 971.3 -1.1 24
2019-08-04 14:00:00 31.3 15 Sudoeste 31 Sudoeste 0 971.7 -0.8 29
2019-08-04 13:00:00 28.7 15 Sur 26 Sur 0 972.1 -0.4 38
2019-08-04 12:00:00 25.6 11 Sudoeste 17 Sur 0 972.4 0.1 50
2019-08-04 11:00:00 22.6 9 Sudoeste 15 Sudoeste 0 972.5 0.5 62
2019-08-04 10:00:00 20 7 Sudoeste 14 Sudoeste 0 972.5 0.8 72
2019-08-04 09:00:00 18.3 7 Sudoeste 10 Sudoeste 0 972.3 0.8 74
2019-08-04 08:00:00 16.6 7 Oeste 11 Sudoeste 0 972 0.6 78
2019-08-04 07:00:00 17.3 7 Oeste 12 Oeste 0 971.7 0.3 74
2019-08-04 06:00:00 18 6 Oeste 11 Oeste 0 971.5 0.1 69
2019-08-04 05:00:00 18.9 8 Sudoeste 16 Sudoeste 0 971.4 0 62
2019-08-04 04:00:00 19.6 13 Sudoeste 15 Sudoeste 0 971.4 0.2 62
2019-08-04 03:00:00 21 10 Oeste 16 Oeste 0 971.4 0.6 59
2019-08-04 02:00:00 22.2 11 Oeste 19 Sudoeste 0 971.4 1.1 55
2019-08-04 01:00:00 23.7 13 Sudoeste 22 Oeste 0 971.2 1.5 48
2019-08-04 00:00:00 25.2 12 Oeste 25 Oeste 0 970.8 1.5 41
2019-08-03 23:00:00 27.6 12 Sudoeste 19 Sudoeste 0 970.3 1.2 31
2019-08-03 22:00:00 29 10 Sudoeste 25 Oeste 0 969.7 0.4 23
2019-08-03 21:00:00 31.9 17 Oeste 36 Oeste 0 969.3 -0.2 17
2019-08-03 20:00:00 33 23 Oeste 35 Sudoeste 0 969.1 -0.9 19
2019-08-03 19:00:00 34 24 Sudoeste 40 Oeste 0 969.3 -0.9 13
2019-08-03 18:00:00 34.2 22 Oeste 39 Sudoeste 0 969.5 -1 13
2019-08-03 17:00:00 33.9 24 Sudoeste 41 Sudoeste 0 970 -0.9 14
2019-08-03 16:00:00 33.6 24 Sudoeste 40 Sudoeste 0 970.2 -1 15
2019-08-03 15:00:00 33.2 23 Oeste 35 Sudoeste 0 970.5 -0.7 16
2019-08-03 14:00:00 32 21 Sudoeste 35 Sudoeste 0 970.9 -0.4 20
2019-08-03 13:00:00 30 17 Sudoeste 27 Sudoeste 0 971.2 -0.3 29
2019-08-03 12:00:00 26.9 10 Sudoeste 17 Sudoeste 0 971.2 -0.1 38
2019-08-03 11:00:00 23.1 8 Sudoeste 13 Sudoeste 0 971.3 0.4 51
2019-08-03 10:00:00 20.1 6 Sudoeste 9 Sudoeste 0 971.5 0.8 60
2019-08-03 09:00:00 18.2 3 Sudoeste 5 Sudoeste 0 971.3 0.8 65
2019-08-03 08:00:00 16.6 3 Este 6 Este 0 970.9 0.3 72
2019-08-03 07:00:00 17.3 0 Calma 4 Nordeste 0 970.7 0 70
2019-08-03 06:00:00 18.2 2 Sudoeste 13 Oeste 0 970.5 -0.4 65
2019-08-03 05:00:00 19.3 10 Oeste 12 Sudoeste 0 970.6 -0.2 63
2019-08-03 04:00:00 20 8 Oeste 11 Oeste 0 970.7 -0.1 59
2019-08-03 03:00:00 21.1 8 Oeste 22 Sudoeste 0 970.9 0.2 54
2019-08-03 02:00:00 22.3 13 Sudoeste 18 Sudoeste 0 970.8 0.5 48
2019-08-03 01:00:00 23.8 9 Sudoeste 15 Sudoeste 0 970.8 0.8 35
2019-08-03 00:00:00 25.4 8 Sudoeste 18 Sudoeste 0 970.7 1 30
2019-08-02 23:00:00 27.7 14 Oeste 22 Oeste 0 970.3 0.7 24
2019-08-02 22:00:00 29.4 15 Oeste 22 Oeste 0 970 0.3 20
2019-08-02 21:00:00 32.3 17 Sudoeste 25 Oeste 0 969.7 -0.3 16
2019-08-02 20:00:00 34.2 17 Sudoeste 27 Sudoeste 0 969.6 -0.7 13
2019-08-02 19:00:00 34.4 11 Oeste 30 Oeste 0 969.7 -1.2 13
2019-08-02 18:00:00 34.7 13 Oeste 30 Sudoeste 0 970 -1.1 12
2019-08-02 17:00:00 34.2 16 Oeste 32 Sudoeste 0 970.3 -1.2 13
2019-08-02 16:00:00 33.5 17 Sudoeste 33 Sudoeste 0 970.9 -0.9 14
2019-08-02 15:00:00 32.4 19 Sudoeste 30 Sudoeste 0 971.1 -1 14
2019-08-02 14:00:00 31.2 11 Oeste 24 Oeste 0 971.5 -0.6 17
2019-08-02 13:00:00 29.6 14 Sudoeste 25 Sur 0 971.8 -0.5 23
2019-08-02 12:00:00 25.7 12 Sudoeste 19 Sudoeste 0 972.1 0.2 32
2019-08-02 11:00:00 21.9 5 Sudoeste 8 Sudoeste 0 972.1 0.5 42
2019-08-02 10:00:00 19.1 4 Sudoeste 8 Sudoeste 0 972.3 0.7 52
2019-08-02 09:00:00 16.9 2 Sudoeste 5 Sudoeste 0 971.9 0.5 57
2019-08-02 08:00:00 14.5 3 Sudeste 6 Sudoeste 0 971.6 0.1 64
2019-08-02 07:00:00 14.9 7 Sudoeste 13 Sudoeste 0 971.6 0 64
2019-08-02 06:00:00 15.8 9 Sudoeste 12 Sudoeste 0 971.4 -0.4 59
2019-08-02 05:00:00 16.6 6 Sudoeste 15 Oeste 0 971.5 -0.4 51
2019-08-02 04:00:00 17.7 10 Oeste 19 Oeste 0 971.6 -0.3 49
2019-08-02 03:00:00 19.6 13 Oeste 17 Sudoeste 0 971.8 0.3 46
2019-08-02 02:00:00 20.8 16 Sudoeste 18 Sudoeste 0 971.9 1.1 42
2019-08-02 01:00:00 22.9 11 Sudoeste 20 Sudoeste 0 971.9 2.2 36
2019-08-02 00:00:00 24.7 9 Oeste 37 Oeste 0 971.5 2.4 31
2019-08-01 23:00:00 26.6 22 Oeste 36 Oeste 0 970.8 2 26
2019-08-01 22:00:00 28.8 22 Oeste 32 Oeste 0 969.7 1 23
2019-08-01 21:00:00 31.7 25 Oeste 33 Oeste 0 969.1 0.1 17
2019-08-01 20:00:00 33.7 19 Oeste 32 Sudoeste 0 968.8 -0.4 15
2019-08-01 19:00:00 34 13 Oeste 31 Oeste 0 968.7 -0.8 16
2019-08-01 18:00:00 34 19 Oeste 34 Oeste 0 969 -0.9 15
2019-08-01 17:00:00 33.7 14 Oeste 29 Oeste 0 969.2 -1.2 14
2019-08-01 16:00:00 33.2 17 Oeste 34 Sudoeste 0 969.5 -1.1 15
2019-08-01 15:00:00 32.2 20 Sudoeste 31 Oeste 0 969.9 -0.6 18
2019-08-01 14:00:00 30.8 22 Sudoeste 35 Sudoeste 0 970.4 0.1 19
2019-08-01 13:00:00 29.1 20 Sudoeste 28 Sudoeste 0 970.6 0.5 24
2019-08-01 12:00:00 27.4 18 Sudoeste 26 Sudoeste 0 970.5 0.7 28
2019-08-01 11:00:00 24.3 10 Sudoeste 18 Sudoeste 0 970.3 0.8 38
2019-08-01 10:00:00 21 6 Sudoeste 11 Sudoeste 0 970.1 0.8 49
2019-08-01 09:00:00 18.9 5 Sudoeste 9 Sudoeste 0 969.8 0.7 55
2019-08-01 08:00:00 17.1 4 Sudoeste 13 Oeste 0 969.5 0.4 62
2019-08-01 07:00:00 17.5 11 Oeste 16 Oeste 0 969.3 0.4 59
2019-08-01 06:00:00 18.1 10 Sudoeste 14 Oeste 0 969.1 0.1 54
2019-08-01 05:00:00 19.6 8 Sudoeste 14 Sudoeste 0 969.1 0.1 48
2019-08-01 04:00:00 20.7 8 Oeste 12 Sudoeste 0 968.9 -0.2 45
2019-08-01 03:00:00 21.9 10 Oeste 16 Oeste 0 969 0 41
2019-08-01 02:00:00 22.6 9 Oeste 13 Sudoeste 0 969 0.4 37
2019-08-01 01:00:00 23.6 5 Sudoeste 8 Sudoeste 0 969.1 1.5 35
2019-08-01 00:00:00 24.7 2 Sudeste 14 Oeste 0 969 2.3 33
2019-07-31 23:00:00 25.8 5 Sudoeste 36 Oeste 0 968.6 2 30
2019-07-31 22:00:00 27.1 27 Oeste 46 Oeste 0 967.6 1 28
2019-07-31 21:00:00 31.8 17 Oeste 34 Oeste 0 966.7 0 12
2019-07-31 20:00:00 34.3 21 Sudoeste 40 Oeste 0 966.6 -0.7 12
2019-07-31 19:00:00 35 24 Sudoeste 39 Oeste 0 966.6 -1.3 12
2019-07-31 18:00:00 35.6 14 Oeste 33 Sudoeste 0 966.7 -1.5 11
2019-07-31 17:00:00 35.9 13 Oeste 51 Sudoeste 0 967.3 -1.5 11
2019-07-31 16:00:00 35.3 14 Sudoeste 33 Sudoeste 0 967.9 -1.4 11
2019-07-31 15:00:00 34.6 18 Sudoeste 38 Sudoeste 0 968.2 -1.3 11
2019-07-31 14:00:00 33.9 11 Oeste 28 Sudoeste 0 968.8 -0.8 11
2019-07-31 13:00:00 32.5 9 Sudoeste 18 Sur 0 969.3 -0.3 13
2019-07-31 12:00:00 30.1 4 Sudeste 10 Este 0 969.5 0 19
2019-07-31 11:00:00 25.6 4 Este 13 Este 0 969.6 0.1 24
2019-07-31 10:00:00 20.5 3 Este 8 Nordeste 0 969.6 0.1 38
2019-07-31 09:00:00 15.9 4 Este 9 Este 0 969.5 -0.1 51
2019-07-31 08:00:00 14.7 7 Este 15 Este 0 969.5 0 52
2019-07-31 07:00:00 13.6 7 Este 10 Este 0 969.5 -0.2 60
2019-07-31 06:00:00 15.5 4 Este 6 Norte 0 969.6 -0.5 55
2019-07-31 05:00:00 16.8 0 Calma 5 Este 0 969.5 -0.9 53
2019-07-31 04:00:00 17.3 2 Sudeste 10 Sudoeste 0 969.7 -0.8 48
2019-07-31 03:00:00 18.5 6 Sudoeste 9 Sudoeste 0 970.1 -0.3 44
2019-07-31 02:00:00 19.9 6 Sudoeste 9 Sudoeste 0 970.4 0.1 34
2019-07-31 01:00:00 21.3 4 Norte 9 Noroeste 0 970.5 0.7 22
2019-07-31 00:00:00 22.6 6 Oeste 17 Oeste 0 970.4 0.9 21
2019-07-30 23:00:00 26.4 13 Norte 18 Noroeste 0 970.3 0.9 15
2019-07-30 22:00:00 27.2 13 Noroeste 21 Norte 0 969.8 0.5 14
2019-07-30 21:00:00 29.5 12 Noroeste 27 Noroeste 0 969.5 -0.4 12
2019-07-30 20:00:00 30.6 14 Norte 27 Norte 0 969.4 -1 10
2019-07-30 19:00:00 31.4 9 Noroeste 30 Norte 0 969.3 -1.6 10
2019-07-30 18:00:00 31.5 11 Norte 32 Norte 0 969.9 -1.6 11
2019-07-30 17:00:00 30.8 10 Noroeste 30 Noroeste 0 970.4 -1.6 11
2019-07-30 16:00:00 29.7 10 Nordeste 28 Noroeste 0 970.9 -1.7 12
2019-07-30 15:00:00 29.1 16 Noroeste 31 Oeste 0 971.5 -1.3 13
2019-07-30 14:00:00 27.4 14 Norte 32 Noroeste 0 972 -1.1 13
2019-07-30 13:00:00 26.1 17 Norte 28 Norte 0 972.6 -0.8 19
2019-07-30 12:00:00 24.7 14 Norte 25 Norte 0 972.8 -0.4 23
2019-07-30 11:00:00 21.5 7 Este 17 Este 0 973.1 0.3 38
2019-07-30 10:00:00 18.9 6 Este 11 Este 0 973.4 0.9 48
2019-07-30 09:00:00 15.1 0 Calma 7 Sudoeste 0 973.2 0.8 64
2019-07-30 08:00:00 12.5 5 Sudoeste 8 Sur 0 972.8 0.4 73
2019-07-30 07:00:00 12.8 6 Sudoeste 10 Sudoeste 0 972.5 0 71
2019-07-30 06:00:00 14.3 5 Sudoeste 11 Oeste 0 972.4 -0.1 65
2019-07-30 05:00:00 14.9 5 Sudoeste 12 Sudoeste 0 972.4 -0.1 62
2019-07-30 04:00:00 15.6 9 Sudoeste 12 Sudoeste 0 972.5 0.2 59
2019-07-30 03:00:00 16.5 10 Oeste 17 Oeste 0 972.5 0.6 54
2019-07-30 02:00:00 17.7 9 Oeste 17 Sudoeste 0 972.5 1 50
2019-07-30 01:00:00 19.2 11 Sudoeste 18 Sudoeste 0 972.3 1.5 45
2019-07-30 00:00:00 20.8 10 Sudoeste 35 Oeste 0 971.9 1.7 40
2019-07-29 23:00:00 22.7 23 Oeste 31 Oeste 0 971.5 1.7 33
2019-07-29 22:00:00 24.8 19 Oeste 32 Oeste 0 970.8 1.3 26
2019-07-29 21:00:00 27.4 19 Noroeste 37 Oeste 0 970.2 0.7 23
2019-07-29 20:00:00 29.1 24 Oeste 42 Oeste 0 969.8 0 22
2019-07-29 19:00:00 30.2 23 Oeste 40 Oeste 0 969.5 -0.5 22
2019-07-29 18:00:00 30 18 Noroeste 36 Oeste 0 969.5 -0.6 23
2019-07-29 17:00:00 30.3 25 Oeste 41 Oeste 0 969.8 -0.5 20
2019-07-29 16:00:00 29.4 23 Oeste 35 Oeste 0 970 -0.9 30
2019-07-29 15:00:00 28.8 18 Oeste 35 Oeste 0 970.1 -0.9 37
2019-07-29 14:00:00 27.6 18 Sudoeste 32 Oeste 0 970.3 -0.5 41
2019-07-29 13:00:00 26.4 16 Oeste 40 Noroeste 0 970.9 0.1 46
2019-07-29 12:00:00 23.7 19 Oeste 29 Oeste 0 971 0.4 50
2019-07-29 11:00:00 21.7 19 Oeste 30 Oeste 0 970.8 0.6 57
2019-07-29 10:00:00 18.9 10 Sudoeste 17 Sudoeste 0 970.8 1.2 60
2019-07-29 09:00:00 16 8 Sur 12 Sur 0 970.6 1.3 64
2019-07-29 08:00:00 14.7 9 Oeste 17 Sudoeste 0 970.2 1.1 58
2019-07-29 07:00:00 14.5 13 Sudoeste 19 Sudoeste 0 969.6 0.7 60
2019-07-29 06:00:00 15.9 13 Oeste 16 Oeste 0 969.3 0.4 57
2019-07-29 05:00:00 17.2 9 Oeste 19 Oeste 0 969.1 0.2 54
2019-07-29 04:00:00 18.7 14 Sudoeste 20 Sudoeste 0 968.9 0.3 57
2019-07-29 03:00:00 20.3 10 Sudoeste 21 Oeste 0 968.9 0.9 55
2019-07-29 02:00:00 21.7 14 Sudoeste 27 Oeste 0 968.9 1.4 51
2019-07-29 01:00:00 23.2 20 Sudoeste 35 Oeste 0 968.6 1.6 47
2019-07-29 00:00:00 24.5 27 Oeste 37 Oeste 0 968 1.5 44
2019-07-28 23:00:00 25.8 14 Oeste 17 Oeste 0 967.5 1.4 32
2019-07-28 22:00:00 28 9 Noroeste 23 Noroeste 0 967 1.1 27
2019-07-28 21:00:00 30.4 13 Oeste 31 Oeste 0 966.5 0.3 25
2019-07-28 20:00:00 31.4 16 Oeste 31 Oeste 0 966.1 -0.5 26
2019-07-28 19:00:00 31.8 22 Sudoeste 29 Sudoeste 0 965.9 -1.2 26
2019-07-28 18:00:00 31.9 15 Sudoeste 27 Oeste 0 966.2 -1.3 26
2019-07-28 17:00:00 31 9 Sudoeste 25 Sudoeste 0 966.6 -1.5 28
2019-07-28 16:00:00 31.4 6 Oeste 19 Sudoeste 0 967.1 -1.3 25
2019-07-28 15:00:00 29.3 9 Oeste 24 Este 0 967.5 -1.1 27
2019-07-28 14:00:00 27.3 6 Este 24 Sudeste 0 968.1 -0.8 32
2019-07-28 13:00:00 27 5 Sur 18 Sudoeste 0 968.4 -0.6 35
2019-07-28 12:00:00 24.5 7 Sur 14 Sudoeste 0 968.6 -0.3 45
2019-07-28 11:00:00 21.7 4 Oeste 9 Sudoeste 0 968.9 0.3 60
2019-07-28 10:00:00 18.2 4 Sudoeste 8 Sudoeste 0 969 0.6 74
2019-07-28 09:00:00 15.9 3 Este 8 Este 0 968.9 0.7 82
2019-07-28 08:00:00 14.3 3 Nordeste 4 Nordeste 0 968.6 0.5 88
2019-07-28 07:00:00 15 3 Sudoeste 7 Oeste 0 968.4 0 87
2019-07-28 06:00:00 15.4 5 Sudoeste 9 Sudoeste 0 968.2 -0.5 86
2019-07-28 05:00:00 15.9 7 Oeste 10 Oeste 0 968.1 -0.8 84
2019-07-28 04:00:00 16.3 7 Sudoeste 10 Sudoeste 0 968.4 -0.5 82
2019-07-28 03:00:00 16.9 6 Sudoeste 14 Sudoeste 0 968.7 -0.2 79
2019-07-28 02:00:00 17.7 9 Sudoeste 17 Sudoeste 0 968.9 0.4 77
2019-07-28 01:00:00 18.8 10 Sudoeste 21 Sudoeste 0 968.9 1 72
2019-07-28 00:00:00 20 15 Sudoeste 32 Oeste 0 968.9 1.5 67
2019-07-27 23:00:00 21.1 22 Sudoeste 32 Sudoeste 0 968.5 1.3 65
2019-07-26 12:00:00 22.7 17 Oeste 29 Oeste 0 972.4 0.1 50
2019-07-26 11:00:00 19.9 14 Sudoeste 29 Sudoeste 0 972.4 0.5 60
2019-07-26 10:00:00 18 18 Sudoeste 26 Oeste 0 972.8 1.2 68
2019-07-26 09:00:00 16.3 10 Oeste 22 Oeste 0 972.3 0.9 75
2019-07-26 08:00:00 14.4 17 Oeste 27 Oeste 0 971.9 0.4 83
2019-07-26 07:00:00 15 20 Oeste 29 Oeste 0 971.6 0 80
2019-07-26 06:00:00 16.7 12 Oeste 22 Noroeste 0 971.4 -0.3 75
2019-07-26 05:00:00 17.8 12 Oeste 16 Oeste 0 971.5 -0.4 72
2019-07-26 04:00:00 18.7 13 Oeste 22 Oeste 0 971.6 -0.2 69
2019-07-26 03:00:00 19.8 15 Oeste 22 Oeste 0 971.7 0 74
2019-07-26 02:00:00 20.9 18 Sudoeste 31 Oeste 0 971.9 1 72
2019-07-26 01:00:00 22 19 Sudoeste 31 Sudoeste 0 971.8 1.9 69
2019-07-26 00:00:00 23.1 21 Sudoeste 43 Oeste 0 971.7 2.1 67